createdAt,value
2022-09-05T00:01:45.347Z,99490.37
2022-09-05T00:04:25.100Z,99491.05
2022-09-05T00:07:03.311Z,99482.34
2022-09-05T00:09:59.737Z,99483.16
2022-09-05T00:12:36.218Z,99478.84
2022-09-05T00:15:24.872Z,99483.06
2022-09-05T00:23:29.033Z,99480.43
2022-09-05T00:24:37.157Z,99486.48
2022-09-05T00:24:42.681Z,99480.43
2022-09-05T00:26:21.604Z,99484.72
2022-09-05T00:28:58.259Z,99482.09
2022-09-05T00:31:53.869Z,99486.41
2022-09-05T00:34:47.134Z,99484.64
2022-09-05T00:37:06.785Z,99481.08
2022-09-05T00:39:47.920Z,99476.69
2022-09-05T00:42:21.634Z,99474.88
2022-09-05T00:44:58.271Z,99472.25
2022-09-05T00:47:35.061Z,99470.48
2022-09-05T00:50:13.014Z,99471.28
2022-09-05T00:52:50.542Z,99466.05
2022-09-05T00:55:24.495Z,99465.19
2022-09-05T00:58:36.694Z,99470.48
2022-09-05T01:01:21.450Z,99464.36
2022-09-05T01:04:00.148Z,99451.51
2022-09-05T01:06:41.146Z,99455.28
2022-09-05T01:09:30.177Z,99450.45
2022-09-05T01:12:14.245Z,99455.98
2022-09-05T01:15:00.858Z,99448.41
2022-09-05T01:17:41.833Z,99448.44
2022-09-05T01:20:37.663Z,99452.70
2022-09-05T01:23:25.954Z,99448.30
2022-09-05T01:26:17.308Z,99446.64
2022-09-05T01:29:15.298Z,99447.57
2022-09-05T01:31:33.708Z,99442.38
2022-09-05T01:34:11.940Z,99444.21
2022-09-05T01:36:58.169Z,99441.72
2022-09-05T01:40:12.411Z,99442.65
2022-09-05T01:42:16.723Z,99434.03
2022-09-05T01:44:54.650Z,99433.23
2022-09-05T01:47:33.578Z,99435.92
2022-09-05T01:50:14.116Z,99435.09
2022-09-05T01:53:21.720Z,99428.90
2022-09-05T01:56:12.943Z,99431.53
2022-09-05T01:58:51.701Z,99431.53
2022-09-05T02:01:33.050Z,99434.19
2022-09-05T02:04:38.341Z,99426.53
2022-09-05T02:07:30.151Z,99430.12
2022-09-05T02:10:19.394Z,99430.22
2022-09-05T02:13:02.436Z,99435.47
2022-09-05T02:15:36.638Z,99440.02
2022-09-05T02:18:14.546Z,99432.35
2022-09-05T02:20:51.156Z,99439.43
2022-09-05T02:23:41.987Z,99440.42
2022-09-05T02:26:10.198Z,99448.30
2022-09-05T02:28:47.889Z,99444.00
2022-09-05T02:31:25.077Z,99443.05
2022-09-05T02:34:02.640Z,99432.45
2022-09-05T02:36:39.621Z,99445.45
2022-09-05T02:45:04.247Z,99444.63
2022-09-05T02:45:14.918Z,99446.30
2022-09-05T02:45:24.207Z,99443.70
2022-09-05T02:47:12.880Z,99448.03
2022-09-05T02:50:51.744Z,99443.64
2022-09-05T02:57:25.428Z,99446.23
2022-09-05T02:57:39.220Z,99447.04
2022-09-05T02:58:05.622Z,99447.88
2022-09-05T03:00:23.601Z,99444.44
2022-09-05T03:03:08.038Z,99435.81
2022-09-05T03:05:45.098Z,99445.30
2022-09-05T03:08:28.129Z,99441.94
2022-09-05T03:11:51.239Z,99442.83
2022-09-05T03:15:18.625Z,99445.45
2022-09-05T03:18:21.133Z,99448.89
2022-09-05T03:21:29.450Z,99445.45
2022-09-05T03:24:55.622Z,99444.66
2022-09-05T03:27:48.451Z,99448.23
2022-09-05T03:30:23.058Z,99450.72
2022-09-05T03:33:31.114Z,99456.72
2022-09-05T03:36:53.107Z,99450.72
2022-09-05T03:39:38.064Z,99449.82
2022-09-05T03:45:55.799Z,99450.42
2022-09-05T03:48:47.445Z,99448.48
2022-09-05T03:57:04.352Z,99441.64
2022-09-05T03:57:24.168Z,99437.60
2022-09-05T03:57:42.379Z,99442.92
2022-09-05T04:00:22.013Z,99442.05
2022-09-05T04:08:13.956Z,99444.77
2022-09-05T04:08:15.119Z,99448.34
2022-09-05T04:08:38.864Z,99442.36
2022-09-05T04:11:06.762Z,99447.70
2022-09-05T04:13:43.768Z,99444.31
2022-09-05T04:16:21.241Z,99443.61
2022-09-05T04:18:58.392Z,99443.66
2022-09-05T04:21:35.273Z,99440.33
2022-09-05T04:24:12.492Z,99446.47
2022-09-05T04:27:20.801Z,99443.95
2022-09-05T04:30:11.658Z,99443.14
2022-09-05T04:32:50.876Z,99444.84
2022-09-05T04:35:31.638Z,99438.78
2022-09-05T04:38:15.024Z,99438.95
2022-09-05T04:40:53.649Z,99444.27
2022-09-05T04:43:38.766Z,99446.96
2022-09-05T04:46:19.103Z,99441.86
2022-09-05T04:48:58.654Z,99444.59
2022-09-05T04:52:00.186Z,99447.38
2022-09-05T04:54:38.036Z,99438.12
2022-09-05T04:57:22.061Z,99442.59
2022-09-05T05:05:59.772Z,99435.72
2022-09-05T05:06:14.283Z,99442.09
2022-09-05T05:06:19.944Z,99440.20
2022-09-05T05:08:00.628Z,99438.90
2022-09-05T05:14:02.606Z,99438.21
2022-09-05T05:18:02.812Z,99441.81
2022-09-05T05:18:06.171Z,99441.11
2022-09-05T05:18:48.846Z,99436.72
2022-09-05T05:21:12.583Z,99443.66
2022-09-05T05:23:48.851Z,99440.23
2022-09-05T05:26:27.676Z,99441.33
2022-09-05T05:29:04.431Z,99437.07
2022-09-05T05:31:41.031Z,99443.23
2022-09-05T05:34:24.743Z,99438.14
2022-09-05T05:37:01.656Z,99435.78
2022-09-05T05:39:37.224Z,99436.84
2022-09-05T05:42:20.952Z,99438.72
2022-09-05T05:44:54.999Z,99432.72
2022-09-05T05:47:32.642Z,99430.10
2022-09-05T05:50:13.878Z,99431.84
2022-09-05T05:53:04.098Z,99438.88
2022-09-05T06:02:47.057Z,99439.27
2022-09-05T06:05:31.769Z,99441.73
2022-09-05T06:14:55.118Z,99436.25
2022-09-05T06:14:56.533Z,99438.82
2022-09-05T06:17:51.498Z,99444.15
2022-09-05T06:22:10.742Z,99442.50
2022-09-05T06:24:00.889Z,99446.19
2022-09-05T06:27:00.498Z,99444.67
2022-09-05T06:29:47.196Z,99438.58
2022-09-05T06:32:25.347Z,99443.83
2022-09-05T06:35:26.463Z,99439.47
2022-09-05T06:38:24.433Z,99436.80
2022-09-05T06:41:03.262Z,99441.14
2022-09-05T06:43:45.143Z,99443.76
2022-09-05T06:46:54.503Z,99448.05
2022-09-05T06:49:30.671Z,99443.64
2022-09-05T06:52:13.099Z,99439.33
2022-09-05T06:55:05.243Z,99440.35
2022-09-05T06:58:04.328Z,99440.34
2022-09-05T07:00:41.683Z,99436.87
2022-09-05T07:03:32.358Z,99447.32
2022-09-05T07:06:09.039Z,99434.61
2022-09-05T07:08:50.422Z,99428.41
2022-09-05T07:11:26.653Z,99431.92
2022-09-05T07:14:03.670Z,99433.97
2022-09-05T07:16:44.319Z,99425.33
2022-09-05T07:19:28.266Z,99415.23
2022-09-05T07:22:41.718Z,99413.38
2022-09-05T07:24:55.691Z,99411.95
2022-09-05T07:27:49.852Z,99415.91
2022-09-05T07:30:14.293Z,99411.21
2022-09-05T07:32:50.057Z,99427.81
2022-09-05T07:35:27.798Z,99423.06
2022-09-05T07:38:03.469Z,99419.95
2022-09-05T07:40:40.101Z,99407.48
2022-09-05T07:43:18.988Z,99411.34
2022-09-05T07:45:56.953Z,99386.68
2022-09-05T07:48:35.143Z,99402.40
2022-09-05T07:56:47.567Z,99393.57
2022-09-05T07:57:10.466Z,99398.06
2022-09-05T07:57:15.968Z,99415.09
2022-09-05T07:59:19.038Z,99412.77
2022-09-05T08:01:57.921Z,99422.05
2022-09-05T08:04:33.213Z,99421.35
2022-09-05T08:07:45.910Z,99420.63
2022-09-05T08:10:09.315Z,99415.36
2022-09-05T08:12:27.705Z,99411.89
2022-09-05T08:15:01.376Z,99416.48
2022-09-05T08:17:40.063Z,99407.06
2022-09-05T08:20:25.194Z,99412.38
2022-09-05T08:23:03.581Z,99411.55
2022-09-05T08:25:56.950Z,99422.88
2022-09-05T08:28:19.754Z,99424.64
2022-09-05T08:30:56.166Z,99414.13
2022-09-05T08:33:33.154Z,99410.55
2022-09-05T08:36:10.646Z,99406.97
2022-09-05T08:38:46.016Z,99385.83
2022-09-05T08:41:25.902Z,99387.54
2022-09-05T08:46:42.706Z,99403.42
2022-09-05T08:49:54.702Z,99408.83
2022-09-05T08:52:34.323Z,99417.66
2022-09-05T08:55:13.657Z,99415.90
2022-09-05T08:58:04.716Z,99414.16
2022-09-05T09:03:35.318Z,99408.91
2022-09-05T09:06:36.781Z,99414.99
2022-09-05T09:09:23.709Z,99400.95
2022-09-05T09:12:00.397Z,99400.59
2022-09-05T09:14:42.517Z,99397.42
2022-09-05T09:17:22.392Z,99397.13
2022-09-05T09:20:04.838Z,99398.78
2022-09-05T09:22:43.276Z,99388.25
2022-09-05T09:25:25.105Z,99377.72
2022-09-05T09:28:48.343Z,99394.14
2022-09-05T09:30:44.641Z,99377.94
2022-09-05T09:33:22.704Z,99382.59
2022-09-05T09:36:08.041Z,99396.63
2022-09-05T09:41:46.019Z,99384.41
2022-09-05T09:45:28.235Z,99378.30
2022-09-05T09:47:47.247Z,99381.72
2022-09-05T09:50:29.595Z,99378.18
2022-09-05T09:53:23.853Z,99375.55
2022-09-05T09:56:30.922Z,99382.58
2022-09-05T09:59:54.439Z,99375.59
2022-09-05T10:08:38.127Z,99362.55
2022-09-05T10:10:44.657Z,99385.16
2022-09-05T10:10:47.752Z,99384.41
2022-09-05T10:14:35.412Z,99392.05
2022-09-05T10:17:19.916Z,99384.23
2022-09-05T10:20:21.285Z,99392.17
2022-09-05T10:23:05.513Z,99393.92
2022-09-05T10:29:35.064Z,99375.55
2022-09-05T10:35:08.238Z,99383.37
2022-09-05T10:35:17.774Z,99379.99
2022-09-05T10:37:12.521Z,99379.19
2022-09-05T10:39:51.043Z,99373.09
2022-09-05T10:42:27.714Z,99366.95
2022-09-05T10:45:02.404Z,99370.42
2022-09-05T10:47:41.331Z,99361.70
2022-09-05T10:50:24.411Z,99366.97
2022-09-05T10:53:39.042Z,99350.24
2022-09-05T10:56:08.315Z,99351.50
2022-09-05T11:02:22.864Z,99325.89
2022-09-05T11:02:26.640Z,99313.55
2022-09-05T11:04:23.902Z,99325.44
2022-09-05T11:06:59.670Z,99326.86
2022-09-05T11:09:42.634Z,99327.12
2022-09-05T11:12:26.208Z,99320.98
2022-09-05T11:15:02.778Z,99316.77
2022-09-05T11:17:40.725Z,99322.27
2022-09-05T11:23:35.853Z,99314.47
2022-09-05T11:29:00.828Z,99307.17
2022-09-05T11:32:49.820Z,99315.94
2022-09-05T11:40:07.347Z,99312.16
2022-09-05T11:44:25.222Z,99308.06
2022-09-05T11:46:45.534Z,99306.63
2022-09-05T11:49:50.386Z,99300.37
2022-09-05T11:53:21.048Z,99311.03
2022-09-05T11:59:14.377Z,99299.88
2022-09-05T12:01:51.953Z,99305.41
2022-09-05T12:04:43.383Z,99291.42
2022-09-05T12:07:43.662Z,99291.42
2022-09-05T12:10:45.814Z,99287.05
2022-09-05T12:13:07.145Z,99285.92
2022-09-05T12:15:42.552Z,99280.77
2022-09-05T12:18:24.375Z,99286.22
2022-09-05T12:21:04.587Z,99288.25
2022-09-05T12:24:05.416Z,99303.27
2022-09-05T12:29:37.361Z,99270.97
2022-09-05T12:33:07.496Z,99248.14
2022-09-05T12:40:58.518Z,99253.06
2022-09-05T12:41:33.378Z,99279.16
2022-09-05T12:41:42.270Z,99268.78
2022-09-05T12:43:38.084Z,99266.79
2022-09-05T12:45:24.946Z,99284.81
2022-09-05T12:48:03.231Z,99280.58
2022-09-05T12:50:42.717Z,99274.67
2022-09-05T12:53:15.988Z,99273.23
2022-09-05T12:56:21.850Z,99285.69
2022-09-05T13:03:00.882Z,99281.53
2022-09-05T13:03:13.477Z,99282.34
2022-09-05T13:04:16.912Z,99288.20
2022-09-05T13:06:29.676Z,99288.69
2022-09-05T13:09:07.497Z,99290.01
2022-09-05T13:14:47.484Z,99290.20
2022-09-05T13:14:54.649Z,99291.63
2022-09-05T13:17:06.776Z,99285.27
2022-09-05T13:19:44.869Z,99280.62
2022-09-05T13:22:21.132Z,99276.72
2022-09-05T13:24:57.380Z,99283.82
2022-09-05T13:27:33.717Z,99284.67
2022-09-05T13:33:00.377Z,99282.89
2022-09-05T13:38:01.345Z,99279.31
2022-09-05T13:38:05.155Z,99283.85
2022-09-05T13:38:35.955Z,99278.96
2022-09-05T13:40:46.743Z,99285.53
2022-09-05T13:43:25.178Z,99295.27
2022-09-05T13:46:08.096Z,99296.08
2022-09-05T13:54:50.406Z,99278.27
2022-09-05T13:57:42.783Z,99279.98
2022-09-05T14:00:55.803Z,99268.90
2022-09-05T14:05:05.299Z,99273.30
2022-09-05T14:09:59.478Z,99275.64
2022-09-05T14:12:40.045Z,99265.86
2022-09-05T14:15:24.844Z,99258.20
2022-09-05T14:18:21.287Z,99261.52
2022-09-05T14:21:10.422Z,99267.50
2022-09-05T14:23:56.049Z,99264.44
2022-09-05T14:26:33.238Z,99275.41
2022-09-05T14:37:55.417Z,99273.38
2022-09-05T14:37:59.418Z,99272.31
2022-09-05T14:38:07.892Z,99262.14
2022-09-05T14:41:00.081Z,99263.41
2022-09-05T14:44:16.168Z,99258.49
2022-09-05T14:47:38.351Z,99266.78
2022-09-05T14:50:35.193Z,99265.33
2022-09-05T14:56:57.747Z,99272.48
2022-09-05T15:02:46.049Z,99262.48
2022-09-05T15:02:53.353Z,99257.03
2022-09-05T15:06:33.092Z,99266.05
2022-09-05T15:11:25.521Z,99264.94
2022-09-05T15:12:19.619Z,99266.01
2022-09-05T15:14:21.412Z,99271.80
2022-09-05T15:17:03.689Z,99272.16
2022-09-05T15:20:06.771Z,99273.47
2022-09-05T15:22:33.337Z,99281.09
2022-09-05T15:25:17.530Z,99272.05
2022-09-05T15:27:51.683Z,99274.09
2022-09-05T15:30:35.058Z,99270.77
2022-09-05T15:33:25.278Z,99283.10
2022-09-05T15:35:55.389Z,99286.62
2022-09-05T15:38:56.131Z,99285.70
2022-09-05T15:41:22.200Z,99288.30
2022-09-05T15:44:00.333Z,99290.91
2022-09-05T15:46:46.569Z,99283.06
2022-09-05T15:49:30.776Z,99280.42
2022-09-05T15:52:11.877Z,99278.64
2022-09-05T15:54:51.859Z,99282.13
2022-09-05T15:57:28.987Z,99282.08
2022-09-05T16:00:05.469Z,99286.39
2022-09-05T16:02:41.893Z,99284.60
2022-09-05T16:08:32.787Z,99281.98
2022-09-05T16:10:39.234Z,99281.98
2022-09-05T16:11:06.796Z,99285.45
2022-09-05T16:13:17.671Z,99287.18
2022-09-05T16:23:13.392Z,99286.32
2022-09-05T16:23:14.768Z,99290.69
2022-09-05T16:23:59.296Z,99295.16
2022-09-05T16:26:33.561Z,99294.23
2022-09-05T16:29:09.275Z,99292.52
2022-09-05T16:31:47.390Z,99296.02
2022-09-05T16:37:36.961Z,99293.47
2022-09-05T16:40:16.530Z,99290.84
2022-09-05T16:42:54.240Z,99300.39
2022-09-05T16:45:38.027Z,99296.05
2022-09-05T16:48:31.435Z,99303.80
2022-09-05T16:51:15.442Z,99304.58
2022-09-05T16:53:59.140Z,99314.13
2022-09-05T16:59:14.370Z,99312.38
2022-09-05T17:02:14.002Z,99317.55
2022-09-05T17:05:06.381Z,99312.37
2022-09-05T17:07:54.775Z,99321.11
2022-09-05T17:10:31.047Z,99312.41
2022-09-05T17:13:06.606Z,99318.55
2022-09-05T17:15:51.909Z,99310.75
2022-09-05T17:18:25.133Z,99321.20
2022-09-05T17:20:59.463Z,99315.08
2022-09-05T17:29:15.583Z,99316.78
2022-09-05T17:29:24.829Z,99317.69
2022-09-05T17:29:27.608Z,99317.66
2022-09-05T17:31:55.210Z,99323.78
2022-09-05T17:34:44.700Z,99328.10
2022-09-05T17:37:41.166Z,99329.77
2022-09-05T17:40:44.542Z,99326.25
2022-09-05T17:43:28.458Z,99325.39
2022-09-05T17:46:11.864Z,99331.41
2022-09-05T17:49:18.759Z,99328.80
2022-09-05T17:52:32.377Z,99336.66
2022-09-05T17:55:09.404Z,99343.64
2022-09-05T17:57:45.336Z,99338.41
2022-09-05T18:01:09.403Z,99332.38
2022-09-05T18:04:17.721Z,99341.98
2022-09-05T18:06:59.780Z,99345.49
2022-09-05T18:10:14.505Z,99351.58
2022-09-05T18:13:11.813Z,99342.83
2022-09-05T18:15:18.957Z,99347.10
2022-09-05T18:18:05.517Z,99348.86
2022-09-05T18:20:48.835Z,99348.05
2022-09-05T18:23:54.021Z,99344.59
2022-09-05T18:26:23.682Z,99348.05
2022-09-05T18:29:02.523Z,99339.25
2022-09-05T18:32:04.177Z,99344.42
2022-09-05T18:34:50.955Z,99345.27
2022-09-05T18:37:53.956Z,99341.77
2022-09-05T18:41:03.597Z,99344.36
2022-09-05T18:43:57.211Z,99339.14
2022-09-05T18:46:31.697Z,99345.27
2022-09-05T18:50:22.188Z,99344.42
2022-09-05T18:51:50.830Z,99341.81
2022-09-05T18:54:27.464Z,99340.10
2022-09-05T18:57:26.506Z,99335.73
2022-09-05T18:59:41.712Z,99340.05
2022-09-05T19:02:26.603Z,99337.45
2022-09-05T19:04:59.974Z,99337.49
2022-09-05T19:07:38.469Z,99336.63
2022-09-05T19:10:34.266Z,99335.73
2022-09-05T19:12:55.451Z,99334.88
2022-09-05T19:15:31.570Z,99338.29
2022-09-05T19:18:36.834Z,99338.28
2022-09-05T19:21:15.533Z,99338.23
2022-09-05T19:23:53.848Z,99330.34
2022-09-05T19:26:29.084Z,99329.45
2022-09-05T19:36:56.604Z,99323.37
2022-09-05T19:37:04.206Z,99328.59
2022-09-05T19:37:06.991Z,99333.81
2022-09-05T19:42:11.582Z,99330.23
2022-09-05T19:47:29.846Z,99327.60
2022-09-05T19:47:38.380Z,99330.17
2022-09-05T19:50:12.925Z,99322.32
2022-09-05T19:52:46.445Z,99313.58
2022-09-05T19:55:26.186Z,99321.35
2022-09-05T19:58:19.130Z,99312.66
2022-09-05T20:00:51.914Z,99316.98
2022-09-05T20:03:24.007Z,99319.55
2022-09-05T20:05:57.275Z,99320.34
2022-09-05T20:08:35.841Z,99311.52
2022-09-05T20:11:09.798Z,99320.19
2022-09-05T20:13:43.102Z,99320.15
2022-09-05T20:16:16.623Z,99308.74
2022-09-05T20:18:49.981Z,99313.02
2022-09-05T20:21:27.005Z,99308.58
2022-09-05T20:24:00.725Z,99317.22
2022-09-05T20:26:35.643Z,99311.08
2022-09-05T20:29:10.138Z,99312.83
2022-09-05T20:31:45.308Z,99316.28
2022-09-05T20:37:00.930Z,99318.02
2022-09-05T20:43:08.993Z,99314.52
2022-09-05T20:43:17.746Z,99314.48
2022-09-05T20:43:21.187Z,99309.29
2022-09-05T20:45:03.881Z,99314.42
2022-09-05T20:50:23.943Z,99312.55
2022-09-05T20:54:07.542Z,99308.28
2022-09-05T20:54:17.841Z,99307.29
2022-09-05T20:55:41.885Z,99304.59
2022-09-05T20:58:18.081Z,99308.02
2022-09-05T21:01:19.805Z,99299.28
2022-09-05T21:03:37.038Z,99305.33
2022-09-05T21:06:17.416Z,99299.20
2022-09-05T21:08:51.224Z,99295.66
2022-09-05T21:11:34.205Z,99293.95
2022-09-05T21:14:09.115Z,99300.03
2022-09-05T21:16:45.926Z,99305.23
2022-09-05T21:19:28.064Z,99308.70
2022-09-05T21:22:09.885Z,99303.48
2022-09-05T21:24:44.284Z,99306.97
2022-09-05T21:27:19.500Z,99306.97
2022-09-05T21:29:58.768Z,99303.48
2022-09-05T21:32:34.752Z,99301.78
2022-09-05T21:35:03.464Z,99301.88
2022-09-05T21:37:41.407Z,99290.64
2022-09-05T21:40:16.432Z,99298.56
2022-09-05T21:47:38.255Z,99296.92
2022-09-05T21:47:49.091Z,99294.38
2022-09-05T21:48:05.797Z,99290.02
2022-09-05T21:50:45.324Z,99284.81
2022-09-05T21:57:08.239Z,99286.58
2022-09-05T21:59:17.796Z,99278.77
2022-09-05T21:59:24.588Z,99283.97
2022-09-05T22:01:51.993Z,99282.27
2022-09-05T22:03:58.416Z,99289.24
2022-09-05T22:06:33.379Z,99279.66
2022-09-05T22:09:12.825Z,99283.11
2022-09-05T22:11:44.031Z,99292.69
2022-09-05T22:14:19.083Z,99284.87
2022-09-05T22:16:55.535Z,99282.28
2022-09-05T22:19:37.467Z,99279.66
2022-09-05T22:22:07.676Z,99280.44
2022-09-05T22:24:42.101Z,99276.90
2022-09-05T22:27:17.615Z,99277.80
2022-09-05T22:29:51.992Z,99270.84
2022-09-05T22:32:34.584Z,99274.34
2022-09-05T22:35:26.717Z,99271.74
2022-09-05T22:37:40.316Z,99263.85
2022-09-05T22:40:14.906Z,99262.84
2022-09-05T22:42:57.660Z,99263.63
2022-09-05T22:45:33.338Z,99265.31
2022-09-05T22:48:11.549Z,99259.16
2022-09-05T22:50:46.952Z,99266.01
2022-09-05T22:53:21.380Z,99266.77
2022-09-05T22:56:00.898Z,99271.95
2022-09-05T22:58:39.333Z,99271.11
2022-09-05T23:01:13.777Z,99275.44
2022-09-05T23:03:47.337Z,99278.97
2022-09-05T23:06:20.997Z,99274.77
2022-09-05T23:08:56.330Z,99276.59
2022-09-05T23:11:31.784Z,99278.45
2022-09-05T23:14:06.049Z,99278.52
2022-09-05T23:16:39.690Z,99273.31
2022-09-05T23:19:12.884Z,99279.38
2022-09-05T23:21:46.319Z,99277.72
2022-09-05T23:24:19.539Z,99275.20
2022-09-05T23:26:54.176Z,99286.56
2022-09-05T23:29:28.704Z,99273.55
2022-09-05T23:32:02.440Z,99281.35
2022-09-05T23:34:36.271Z,99277.83
2022-09-05T23:37:10.945Z,99272.58
2022-09-05T23:39:44.319Z,99272.48
2022-09-05T23:42:17.805Z,99266.28
2022-09-05T23:44:51.557Z,99274.06
2022-09-05T23:47:25.313Z,99270.52
2022-09-05T23:50:00.144Z,99268.67
2022-09-05T23:52:37.546Z,99281.69
2022-09-05T23:55:13.402Z,99270.40
2022-09-05T23:57:47.388Z,99276.47
